Time;durP1;ratioP1;P1;durP2;ratioP2;P2;SDS_P1;SDS_P2;PMS_P1;PMS_P2;Temp;Humidity;BMP_temperature;BMP_pressure;BME280_temperature;BME280_humidity;BME280_pressure;Samples;Min_cycle;Max_cycle;Signal;HPM_P1;HPM_P2
2021/11/18 00:00:49;;;;;;;50.48;22.87;;;;;;;-2.47;70.71;100317.63;1604900;88;21068;-63
2021/11/18 00:03:18;;;;;;;55.63;23.20;;;;;;;-2.47;70.81;100318.98;1609170;87;21092;-64
2021/11/18 00:05:44;;;;;;;45.33;21.60;;;;;;;-2.51;70.82;100314.55;1618739;88;21081;-63
2021/11/18 00:08:12;;;;;;;45.60;21.82;;;;;;;-2.52;70.82;100311.53;1593005;88;21527;-63
2021/11/18 00:10:48;;;;;;;56.85;24.23;;;;;;;-2.58;70.80;100310.50;1618920;88;21061;-64
2021/11/18 00:13:16;;;;;;;54.93;24.87;;;;;;;-2.59;71.04;100308.02;1619197;86;21072;-63
2021/11/18 00:15:44;;;;;;;48.92;22.90;;;;;;;-2.58;71.15;100309.70;1666625;85;21093;-64
2021/11/18 00:18:15;;;;;;;51.05;23.02;;;;;;;-2.62;71.07;100305.75;1666228;86;21066;-64
2021/11/18 00:20:50;;;;;;;54.00;23.30;;;;;;;-2.63;71.18;100308.98;1663919;86;21026;-63
2021/11/18 00:23:21;;;;;;;51.73;23.85;;;;;;;-2.65;71.17;100311.58;1668431;85;21020;-64
2021/11/18 00:25:48;;;;;;;49.23;23.35;;;;;;;-2.66;71.25;100309.39;1666000;86;21144;-63
2021/11/18 00:28:15;;;;;;;49.45;22.45;;;;;;;-2.66;71.17;100308.05;1659582;85;21066;-64
2021/11/18 00:30:44;;;;;;;47.70;23.20;;;;;;;-2.69;71.23;100307.96;1666551;86;21545;-64
2021/11/18 00:33:10;;;;;;;53.65;23.38;;;;;;;-2.69;71.20;100307.96;1665837;86;21468;-64
2021/11/18 00:35:37;;;;;;;49.03;22.55;;;;;;;-2.68;71.34;100310.14;1665989;85;21062;-64
2021/11/18 00:38:06;;;;;;;51.73;23.55;;;;;;;-2.66;71.28;100308.05;1659408;86;21174;-64
2021/11/18 00:40:36;;;;;;;58.13;23.55;;;;;;;-2.66;71.26;100305.88;1665234;86;21109;-63
2021/11/18 00:43:08;;;;;;;59.88;25.82;;;;;;;-2.66;71.21;100306.69;1669064;85;21105;-63
2021/11/18 00:45:36;;;;;;;56.40;22.98;;;;;;;-2.67;71.22;100301.00;1654027;85;21068;-63
2021/11/18 00:48:04;;;;;;;54.45;23.77;;;;;;;-2.69;71.11;100302.56;1663606;86;21147;-63
2021/11/18 00:50:37;;;;;;;51.08;22.32;;;;;;;-2.73;70.96;100297.81;1645991;86;21754;-62
2021/11/18 00:53:04;;;;;;;50.85;22.30;;;;;;;-2.77;70.90;100301.45;1640238;85;21048;-63
2021/11/18 00:55:31;;;;;;;52.35;23.87;;;;;;;-2.85;70.88;100298.98;1641199;86;21024;-64
2021/11/18 00:57:59;;;;;;;53.23;23.50;;;;;;;-2.90;71.05;100295.55;1666876;86;21061;-64
2021/11/18 01:00:29;;;;;;;48.42;22.35;;;;;;;-2.96;70.91;100299.94;1666737;86;21312;-64
2021/11/18 01:02:58;;;;;;;45.23;21.65;;;;;;;-3.09;70.79;100297.27;1651085;85;21068;-63
2021/11/18 01:05:30;;;;;;;47.70;21.68;;;;;;;-3.21;71.00;100288.45;1678475;85;21044;-63
2021/11/18 01:07:58;;;;;;;40.20;16.70;;;;;;;-3.27;71.06;100283.91;1642409;85;21068;-63
2021/11/18 01:10:30;;;;;;;50.28;22.05;;;;;;;-3.33;71.09;100288.80;1676011;85;21516;-63
2021/11/18 01:12:56;;;;;;;48.08;20.57;;;;;;;-3.42;71.25;100287.66;1680764;85;21237;-64
2021/11/18 01:15:25;;;;;;;49.73;21.42;;;;;;;-3.47;71.28;100292.00;1683664;85;21157;-63
2021/11/18 01:17:56;;;;;;;45.10;22.17;;;;;;;-3.52;71.39;100287.24;1678127;85;21056;-64
2021/11/18 01:20:24;;;;;;;53.25;23.10;;;;;;;-3.56;71.59;100285.98;1659666;85;21198;-63
2021/11/18 01:22:52;;;;;;;50.85;22.20;;;;;;;-3.64;71.69;100278.11;1683248;85;21037;-64
2021/11/18 01:25:19;;;;;;;47.62;23.47;;;;;;;-3.70;71.86;100275.75;1681307;85;21082;-65
2021/11/18 01:27:47;;;;;;;47.88;22.40;;;;;;;-3.74;72.01;100275.33;1665798;85;21214;-64
2021/11/18 01:30:20;;;;;;;49.35;21.55;;;;;;;-3.77;72.26;100278.41;1671737;85;21039;-63
2021/11/18 01:32:49;;;;;;;45.92;21.40;;;;;;;-3.80;72.43;100272.09;1665302;85;21083;-63
2021/11/18 01:35:17;;;;;;;48.68;23.02;;;;;;;-3.84;72.61;100272.20;1678314;84;21743;-64
2021/11/18 01:37:44;;;;;;;46.50;20.90;;;;;;;-3.85;72.78;100275.41;1680117;85;21075;-65
2021/11/18 01:40:13;;;;;;;52.53;23.25;;;;;;;-3.82;72.82;100272.84;1683919;85;21736;-65
2021/11/18 01:42:40;;;;;;;45.38;21.07;;;;;;;-3.81;72.87;100275.83;1680992;85;21013;-65
2021/11/18 01:45:08;;;;;;;51.58;22.62;;;;;;;-3.82;72.84;100274.18;1679082;85;21095;-63
2021/11/18 01:47:35;;;;;;;45.88;22.17;;;;;;;-3.81;72.90;100274.48;1683291;85;21021;-63
2021/11/18 01:50:03;;;;;;;49.25;22.65;;;;;;;-3.82;72.90;100268.25;1683717;85;21589;-64
2021/11/18 01:52:30;;;;;;;53.40;22.90;;;;;;;-3.82;73.08;100267.45;1683959;84;21105;-63
2021/11/18 01:54:59;;;;;;;51.95;21.77;;;;;;;-3.81;73.18;100268.59;1686607;83;21554;-64
2021/11/18 01:57:27;;;;;;;48.68;21.65;;;;;;;-3.78;73.35;100267.33;1660395;85;21087;-64
2021/11/18 02:00:00;;;;;;;49.48;21.60;;;;;;;-3.73;73.38;100270.75;1679660;85;21010;-64
2021/11/18 02:02:42;;;;;;;48.50;22.55;;;;;;;-3.71;73.30;100266.83;1676625;85;21047;-63
2021/11/18 02:05:28;;;;;;;53.68;21.48;;;;;;;-3.72;73.24;100268.38;1662312;85;21159;-65
2021/11/18 02:07:58;;;;;;;50.38;21.65;;;;;;;-3.75;73.18;100262.06;1655132;85;21101;-63
2021/11/18 02:10:31;;;;;;;47.00;20.75;;;;;;;-3.75;73.43;100260.18;1671642;85;21746;-63
2021/11/18 02:13:00;;;;;;;40.70;20.27;;;;;;;-3.77;73.41;100253.36;1669624;84;21092;-63
2021/11/18 02:15:36;;;;;;;42.08;21.37;;;;;;;-3.79;73.53;100250.33;1663487;85;21513;-63
2021/11/18 02:18:13;;;;;;;48.48;20.55;;;;;;;-3.73;73.67;100238.42;1674291;85;21224;-63
2021/11/18 02:20:39;;;;;;;44.42;19.55;;;;;;;-3.71;73.62;100238.53;1670771;85;21096;-64
2021/11/18 02:23:19;;;;;;;48.28;20.88;;;;;;;-3.69;73.64;100232.94;1639875;86;21075;-64
2021/11/18 02:25:49;;;;;;;46.80;21.73;;;;;;;-3.75;73.53;100236.47;1662074;85;21005;-64
2021/11/18 02:28:18;;;;;;;40.75;19.77;;;;;;;-3.75;73.64;100233.78;1667578;85;21074;-64
2021/11/18 02:30:45;;;;;;;50.63;21.65;;;;;;;-3.75;73.67;100248.05;1667857;85;21307;-64
2021/11/18 02:33:12;;;;;;;49.20;20.80;;;;;;;-3.74;73.68;100238.95;1670267;85;21018;-63
2021/11/18 02:35:42;;;;;;;43.28;21.07;;;;;;;-3.75;73.63;100239.97;1666732;85;21025;-64
2021/11/18 02:38:09;;;;;;;44.42;19.15;;;;;;;-3.76;73.64;100245.57;1665711;85;21097;-63
2021/11/18 02:40:36;;;;;;;46.50;18.82;;;;;;;-3.81;73.57;100239.47;1674373;85;21537;-63
2021/11/18 02:43:05;;;;;;;45.80;20.55;;;;;;;-3.89;73.34;100240.51;1662932;85;21025;-63
2021/11/18 02:45:35;;;;;;;46.63;21.07;;;;;;;-4.00;73.17;100234.36;1671168;85;21030;-65
2021/11/18 02:48:03;;;;;;;39.88;21.17;;;;;;;-4.12;73.17;100226.06;1656409;85;21105;-65
2021/11/18 02:50:35;;;;;;;48.80;21.52;;;;;;;-4.23;73.29;100220.25;1674799;85;21069;-63
2021/11/18 02:53:03;;;;;;;40.38;19.87;;;;;;;-4.30;73.32;100223.47;1665290;85;21484;-63
2021/11/18 02:55:37;;;;;;;49.23;22.07;;;;;;;-4.33;73.50;100227.91;1663414;85;21074;-65
2021/11/18 02:58:04;;;;;;;53.30;20.77;;;;;;;-4.37;73.55;100226.65;1667043;85;21044;-63
2021/11/18 03:00:37;;;;;;;55.90;23.38;;;;;;;-4.36;73.95;100227.79;1666892;85;21732;-62
2021/11/18 03:03:04;;;;;;;;;;;;;;;-4.32;74.14;100225.02;1670012;85;21006;-62
2021/11/18 03:05:32;;;;;;;46.35;21.85;;;;;;;-4.33;74.02;100227.91;1618164;87;20155;-62
2021/11/18 03:07:58;;;;;;;46.25;21.17;;;;;;;-4.38;74.07;100228.50;1638285;87;21155;-62
2021/11/18 03:10:28;;;;;;;45.08;20.70;;;;;;;-4.39;74.07;100222.82;1638055;87;21550;-62
2021/11/18 03:12:57;;;;;;;43.52;19.17;;;;;;;-4.36;74.25;100225.61;1670746;85;21056;-62
2021/11/18 03:15:24;;;;;;;52.15;22.93;;;;;;;-4.34;74.32;100220.86;1673416;85;21525;-62
2021/11/18 03:17:52;;;;;;;47.75;22.10;;;;;;;-4.32;74.39;100222.84;1667025;85;21069;-63
2021/11/18 03:20:22;;;;;;;54.85;22.62;;;;;;;-4.28;74.67;100221.38;1663282;85;21952;-63
2021/11/18 03:22:48;;;;;;;48.28;22.37;;;;;;;-4.20;74.88;100219.86;1671032;85;21582;-63
2021/11/18 03:25:17;;;;;;;53.23;23.42;;;;;;;-4.13;74.90;100215.00;1671075;85;21110;-63
2021/11/18 03:27:46;;;;;;;57.73;23.90;;;;;;;-4.06;75.12;100217.19;1669951;85;21722;-63
2021/11/18 03:30:15;;;;;;;55.63;24.20;;;;;;;-3.99;75.17;100212.61;1670057;85;21049;-61
2021/11/18 03:32:42;;;;;;;51.00;24.02;;;;;;;-3.91;75.18;100207.56;1663529;84;21867;-62
2021/11/18 03:35:09;;;;;;;46.68;22.10;;;;;;;-3.82;75.09;100216.27;1671112;85;21084;-62
2021/11/18 03:37:35;;;;;;;51.10;22.32;;;;;;;-3.77;74.93;100212.95;1647256;85;21089;-62
2021/11/18 03:40:02;;;;;;;58.92;22.87;;;;;;;-3.76;74.74;100215.94;1667350;85;21560;-63
2021/11/18 03:42:29;;;;;;;51.30;22.90;;;;;;;-3.75;74.65;100208.99;1666066;85;21112;-63
2021/11/18 03:44:56;;;;;;;48.45;21.52;;;;;;;-3.74;74.59;100205.28;1662752;85;21546;-62
2021/11/18 03:47:23;;;;;;;48.68;21.40;;;;;;;-3.70;74.67;100203.00;1669037;85;21066;-64
2021/11/18 03:49:51;;;;;;;45.88;22.17;;;;;;;-3.65;74.69;100201.02;1671088;85;21575;-63
2021/11/18 03:52:18;;;;;;;52.78;22.27;;;;;;;-3.64;74.28;100205.36;1663352;85;21025;-63
2021/11/18 03:54:45;;;;;;;50.45;22.65;;;;;;;-3.69;74.15;100202.80;1670077;85;21512;-65
2021/11/18 03:57:13;;;;;;;49.75;21.45;;;;;;;-3.68;74.22;100204.44;1667164;85;21221;-61
2021/11/18 03:59:44;;;;;;;40.23;20.77;;;;;;;-3.71;73.88;100206.20;1670081;85;21074;-63
2021/11/18 04:02:15;;;;;;;42.67;19.90;;;;;;;-3.87;73.42;100203.94;1667856;85;21049;-63
2021/11/18 04:04:46;;;;;;;50.55;21.80;;;;;;;-4.08;73.36;100199.06;1667571;85;21032;-62
2021/11/18 04:07:14;;;;;;;49.65;22.93;;;;;;;-4.31;73.33;100201.09;1668024;85;21600;-64
2021/11/18 04:09:41;;;;;;;49.03;22.52;;;;;;;-4.46;73.65;100199.94;1667447;85;22948;-62
2021/11/18 04:12:09;;;;;;;50.12;22.10;;;;;;;-4.52;73.81;100205.59;1670237;85;21505;-63
2021/11/18 04:14:36;;;;;;;48.63;22.15;;;;;;;-4.52;73.95;100207.48;1667638;85;21033;-62
2021/11/18 04:17:06;;;;;;;48.90;21.97;;;;;;;-4.52;74.07;100214.20;1646914;85;21057;-62
2021/11/18 04:19:32;;;;;;;47.70;21.42;;;;;;;-4.52;74.05;100207.48;1670888;85;21078;-64
2021/11/18 04:21:59;;;;;;;47.00;21.73;;;;;;;-4.54;74.05;100213.03;1671000;85;21154;-62
2021/11/18 04:24:29;;;;;;;49.10;23.18;;;;;;;-4.55;74.01;100203.31;1668201;85;21010;-62
2021/11/18 04:26:55;;;;;;;43.08;20.02;;;;;;;-4.55;73.96;100197.09;1670118;85;21517;-62
2021/11/18 04:29:28;;;;;;;42.93;20.08;;;;;;;-4.56;73.94;100190.91;1661195;85;21058;-63
2021/11/18 04:31:56;;;;;;;44.15;20.97;;;;;;;-4.56;73.84;100180.66;1669390;85;21108;-62
2021/11/18 04:34:23;;;;;;;42.58;20.48;;;;;;;-4.58;73.79;100179.52;1639474;85;21162;-63
2021/11/18 04:36:49;;;;;;;50.58;20.43;;;;;;;-4.59;73.97;100173.80;1665644;85;21121;-63
2021/11/18 04:39:16;;;;;;;41.45;19.62;;;;;;;-4.58;74.13;100170.09;1669796;85;21053;-63
2021/11/18 04:41:42;;;;;;;50.80;21.68;;;;;;;-4.58;74.23;100171.45;1665016;85;21567;-63
2021/11/18 04:44:09;;;;;;;41.02;20.02;;;;;;;-4.58;74.33;100161.19;1671373;85;21097;-63
2021/11/18 04:46:36;;;;;;;38.40;21.62;;;;;;;-4.57;74.32;100164.21;1671344;85;21174;-62
2021/11/18 04:49:03;;;;;;;48.95;20.12;;;;;;;-4.55;74.27;100159.43;1665360;85;21530;-62
2021/11/18 04:51:32;;;;;;;47.00;22.85;;;;;;;-4.56;74.45;100159.97;1645863;85;21055;-64
2021/11/18 04:53:59;;;;;;;43.98;20.75;;;;;;;-4.57;74.47;100164.21;1671036;85;21513;-64
2021/11/18 04:56:28;;;;;;;45.92;20.32;;;;;;;-4.61;74.49;100161.09;1663887;85;21104;-63
2021/11/18 04:58:56;;;;;;;49.60;22.20;;;;;;;-4.60;74.66;100160.05;1663845;85;21138;-62
2021/11/18 05:01:22;;;;;;;46.10;22.10;;;;;;;-4.59;74.83;100158.20;1667319;85;21021;-63
2021/11/18 05:03:51;;;;;;;43.15;21.00;;;;;;;-4.57;74.83;100163.67;1662265;85;21121;-62
2021/11/18 05:06:18;;;;;;;47.55;21.42;;;;;;;-4.57;74.76;100165.56;1666820;85;21069;-63
2021/11/18 05:08:47;;;;;;;47.08;21.75;;;;;;;-4.58;74.59;100166.06;1666652;85;21058;-62
2021/11/18 05:11:14;;;;;;;42.65;21.95;;;;;;;-4.61;74.64;100169.17;1662793;85;21159;-64
2021/11/18 05:13:40;;;;;;;45.65;21.45;;;;;;;-4.64;74.83;100170.92;1662162;85;21545;-62
2021/11/18 05:16:11;;;;;;;44.23;21.00;;;;;;;-4.66;74.96;100166.25;1666346;85;21104;-63
2021/11/18 05:18:38;;;;;;;56.00;26.33;;;;;;;-4.68;75.04;100162.42;1663433;85;21080;-63
2021/11/18 05:21:07;;;;;;;47.60;21.33;;;;;;;-4.68;75.24;100164.28;1669050;85;21055;-62
2021/11/18 05:23:35;;;;;;;51.42;21.40;;;;;;;-4.67;75.23;100160.03;1666441;85;21917;-63
2021/11/18 05:26:02;;;;;;;46.92;21.82;;;;;;;-4.66;75.30;100163.03;1670971;85;20998;-64
2021/11/18 05:28:29;;;;;;;50.12;21.15;;;;;;;-4.64;75.37;100164.20;1670905;85;21140;-63
2021/11/18 05:30:56;;;;;;;48.00;22.45;;;;;;;-4.61;75.35;100163.78;1631012;85;21540;-62
2021/11/18 05:33:26;;;;;;;47.38;22.40;;;;;;;-4.60;75.40;100160.55;1669732;85;21029;-64
2021/11/18 05:35:54;;;;;;;50.52;21.85;;;;;;;-4.61;75.54;100166.98;1641356;85;21761;-62
2021/11/18 05:38:21;;;;;;;51.18;22.32;;;;;;;-4.60;75.69;100159.22;1651305;85;21044;-63
2021/11/18 05:40:49;;;;;;;52.62;22.73;;;;;;;-4.58;75.65;100157.99;1669708;85;21541;-63
2021/11/18 05:43:17;;;;;;;41.63;20.80;;;;;;;-4.58;75.45;100166.06;1645488;85;21040;-62
2021/11/18 05:45:44;;;;;;;60.95;23.67;;;;;;;-4.58;75.46;100169.26;1674634;85;21516;-63
2021/11/18 05:48:15;;;;;;;56.02;24.10;;;;;;;-4.65;75.46;100168.73;1674754;85;22077;-62
2021/11/18 05:50:46;;;;;;;49.40;23.30;;;;;;;-4.66;75.57;100175.13;1645100;85;21048;-63
2021/11/18 05:53:15;;;;;;;47.38;23.35;;;;;;;-4.66;75.61;100172.98;1656585;85;21278;-63
2021/11/18 05:55:42;;;;;;;45.12;24.18;;;;;;;-4.62;75.69;100167.48;1666745;85;21058;-62
2021/11/18 05:58:09;;;;;;;59.83;25.32;;;;;;;-4.57;75.74;100172.28;1645041;85;21000;-63
2021/11/18 06:00:36;;;;;;;50.45;24.07;;;;;;;-4.54;75.89;100173.22;1658991;85;21153;-62
2021/11/18 06:03:03;;;;;;;46.98;22.82;;;;;;;-4.50;76.03;100173.11;1669150;85;21029;-63
2021/11/18 06:05:30;;;;;;;50.45;23.32;;;;;;;-4.43;76.13;100171.27;1647219;85;21091;-65
2021/11/18 06:07:57;;;;;;;54.50;23.52;;;;;;;-4.34;75.99;100170.56;1665281;85;21053;-65
2021/11/18 06:10:25;;;;;;;56.73;26.02;;;;;;;-4.26;76.01;100170.06;1670296;85;21055;-63
2021/11/18 06:12:53;;;;;;;51.63;24.87;;;;;;;-4.17;75.99;100167.46;1666360;85;21850;-63
2021/11/18 06:15:25;;;;;;;48.52;23.98;;;;;;;-4.09;76.00;100179.37;1667470;85;21218;-64
2021/11/18 06:17:51;;;;;;;54.55;23.67;;;;;;;-3.99;76.03;100171.41;1670685;85;21120;-62
2021/11/18 06:20:18;;;;;;;49.77;23.80;;;;;;;-3.88;76.04;100168.09;1666483;85;21084;-62
2021/11/18 06:22:45;;;;;;;47.43;24.70;;;;;;;-3.75;76.08;100169.93;1666715;85;21095;-64
2021/11/18 06:25:17;;;;;;;55.20;27.27;;;;;;;-3.64;75.90;100170.34;1664601;85;21064;-63
2021/11/18 06:27:46;;;;;;;65.62;26.75;;;;;;;-3.53;75.96;100172.92;1667216;85;21037;-63
2021/11/18 06:30:24;;;;;;;51.83;25.68;;;;;;;-3.40;75.84;100170.70;1665360;85;21586;-65
2021/11/18 06:32:52;;;;;;;54.85;24.95;;;;;;;-3.30;75.60;100173.80;1670110;85;21042;-62
2021/11/18 06:35:19;;;;;;;55.17;26.95;;;;;;;-3.19;75.50;100169.09;1663389;85;21161;-62
2021/11/18 06:37:46;;;;;;;59.23;26.87;;;;;;;-3.10;75.28;100168.33;1661443;85;21151;-63
2021/11/18 06:40:14;;;;;;;53.20;25.57;;;;;;;-2.99;75.23;100170.06;1641953;85;21049;-62
2021/11/18 06:42:43;;;;;;;65.00;28.62;;;;;;;-2.88;74.99;100164.53;1668323;85;21040;-64
2021/11/18 06:45:23;;;;;;;64.03;26.30;;;;;;;-2.77;74.87;100163.01;1644300;85;21024;-64
2021/11/18 06:47:54;;;;;;;64.55;27.15;;;;;;;-2.66;74.63;100161.51;1666873;85;21161;-62
2021/11/18 06:50:22;;;;;;;58.70;27.40;;;;;;;-2.58;74.47;100153.16;1667437;85;21513;-62
2021/11/18 06:52:50;;;;;;;61.95;28.00;;;;;;;-2.51;74.30;100153.95;1669884;85;21096;-63
2021/11/18 06:55:18;;;;;;;58.73;27.65;;;;;;;-2.43;74.20;100158.77;1670076;85;21145;-63
2021/11/18 06:57:46;;;;;;;58.23;26.90;;;;;;;-2.37;73.90;100156.02;1666826;85;21029;-63
2021/11/18 07:00:13;;;;;;;63.78;28.30;;;;;;;-2.32;73.78;100156.73;1647457;84;21578;-62
2021/11/18 07:02:39;;;;;;;55.98;29.10;;;;;;;-2.29;73.61;100153.59;1668530;85;21153;-63
2021/11/18 07:05:07;;;;;;;58.28;27.50;;;;;;;-2.23;73.59;100159.97;1662613;85;21116;-64
2021/11/18 07:07:34;;;;;;;53.28;25.60;;;;;;;-2.16;73.33;100158.05;1626980;87;21125;-65
2021/11/18 07:10:01;;;;;;;56.50;26.68;;;;;;;-2.12;73.15;100155.23;1659466;86;21030;-62
2021/11/18 07:12:30;;;;;;;69.40;30.10;;;;;;;-2.09;73.02;100158.00;1650030;85;21195;-63
2021/11/18 07:14:59;;;;;;;64.07;29.20;;;;;;;-2.02;72.89;100165.54;1650541;85;21049;-61
2021/11/18 07:17:25;;;;;;;56.33;26.35;;;;;;;-1.96;72.92;100161.94;1670051;85;21066;-64
2021/11/18 07:19:54;;;;;;;60.30;28.75;;;;;;;-1.88;72.99;100155.45;1646600;85;21595;-63
2021/11/18 07:22:21;;;;;;;61.70;28.20;;;;;;;-1.81;72.79;100160.80;1639455;86;21533;-62
2021/11/18 07:24:59;;;;;;;60.35;26.35;;;;;;;-1.79;72.69;100164.08;1639422;86;21709;-63
2021/11/18 07:27:25;;;;;;;63.68;29.57;;;;;;;-1.72;72.75;100162.67;1655116;86;21170;-63
2021/11/18 07:29:52;;;;;;;64.65;31.68;;;;;;;-1.62;72.60;100165.69;1656565;86;21515;-63
2021/11/18 07:32:20;;;;;;;70.57;31.15;;;;;;;-1.52;72.36;100161.12;1638398;86;21194;-63
2021/11/18 07:34:47;;;;;;;77.87;29.90;;;;;;;-1.45;72.24;100158.89;1656629;85;21593;-62
2021/11/18 07:37:18;;;;;;;66.70;31.77;;;;;;;-1.38;72.06;100158.30;1648051;86;21106;-62
2021/11/18 07:39:47;;;;;;;66.55;30.52;;;;;;;-1.34;72.02;100152.73;1653571;86;21291;-63
2021/11/18 07:42:15;;;;;;;67.42;30.45;;;;;;;-1.29;71.99;100148.83;1653246;85;21054;-63
2021/11/18 07:44:46;;;;;;;69.20;30.97;;;;;;;-1.23;72.05;100149.81;1649700;86;21045;-62
2021/11/18 07:47:17;;;;;;;69.07;29.27;;;;;;;-1.16;72.05;100147.03;1625061;86;21068;-62
2021/11/18 07:49:44;;;;;;;68.62;30.27;;;;;;;-1.09;71.90;100140.19;1656329;85;21561;-62
2021/11/18 07:52:11;;;;;;;66.10;27.82;;;;;;;-1.04;71.79;100141.69;1654680;86;21086;-62
2021/11/18 07:54:38;;;;;;;64.27;29.52;;;;;;;-1.00;71.92;100139.64;1647563;86;21521;-63
2021/11/18 07:57:06;;;;;;;58.40;27.48;;;;;;;-0.89;72.00;100129.91;1640627;86;21046;-63
2021/11/18 07:59:32;;;;;;;55.17;27.30;;;;;;;-0.77;71.84;100137.27;1639177;86;21093;-63
2021/11/18 08:01:59;;;;;;;56.05;26.57;;;;;;;-0.68;71.79;100131.02;1620891;86;21068;-63
2021/11/18 08:04:25;;;;;;;57.98;27.27;;;;;;;-0.58;71.61;100134.52;1643281;86;22959;-62
2021/11/18 08:06:53;;;;;;;63.02;27.45;;;;;;;-0.50;71.47;100126.89;1663102;85;21115;-62
2021/11/18 08:09:23;;;;;;;60.40;27.22;;;;;;;-0.42;71.44;100128.44;1640471;85;21119;-63
2021/11/18 08:11:55;;;;;;;52.80;26.07;;;;;;;-0.31;71.50;100126.83;1646255;84;21099;-62
2021/11/18 08:14:24;;;;;;;58.48;26.85;;;;;;;-0.21;71.28;100129.48;1673429;85;21652;-62
2021/11/18 08:16:52;;;;;;;58.00;27.82;;;;;;;-0.11;71.10;100114.83;1639098;85;21230;-62
2021/11/18 08:19:19;;;;;;;52.25;25.17;;;;;;;-0.03;70.86;100118.55;1680228;84;21041;-61
2021/11/18 08:21:50;;;;;;;61.15;28.50;;;;;;;0.04;70.76;100123.84;1676478;84;21062;-61
2021/11/18 08:24:19;;;;;;;63.73;28.85;;;;;;;0.15;70.70;100121.38;1675512;85;21055;-61
2021/11/18 08:26:46;;;;;;;57.65;27.13;;;;;;;0.25;70.45;100124.33;1676690;84;21016;-62
2021/11/18 08:29:18;;;;;;;70.90;27.73;;;;;;;0.38;70.38;100127.84;1676100;84;22185;-61
2021/11/18 08:31:46;;;;;;;68.40;28.85;;;;;;;0.51;70.26;100121.36;1644199;87;21569;-63
2021/11/18 08:34:20;;;;;;;63.52;29.92;;;;;;;0.58;69.73;100126.13;1624561;87;21529;-62
2021/11/18 08:36:46;;;;;;;64.60;30.72;;;;;;;0.64;69.64;100127.05;1647055;87;21108;-63
2021/11/18 08:39:19;;;;;;;60.78;28.83;;;;;;;0.72;69.47;100123.44;1620087;88;21649;-63
2021/11/18 08:41:43;;;;;;;71.30;32.10;;;;;;;0.84;69.56;100116.62;1614550;88;21669;-63
2021/11/18 08:44:11;;;;;;;68.85;29.52;;;;;;;0.99;69.34;100126.13;1681370;85;20995;-65
2021/11/18 08:46:38;;;;;;;62.43;30.65;;;;;;;1.08;69.03;100125.22;1680883;85;21007;-62
2021/11/18 08:49:04;;;;;;;66.55;28.98;;;;;;;1.15;69.13;100129.15;1646849;85;21059;-63
2021/11/18 08:51:33;;;;;;;59.98;30.77;;;;;;;1.25;68.86;100126.62;1652295;84;21625;-62
2021/11/18 08:54:03;;;;;;;65.00;28.12;;;;;;;1.32;68.60;100123.77;1677181;85;21134;-64
2021/11/18 08:56:30;;;;;;;67.00;29.15;;;;;;;1.40;68.47;100130.72;1680486;84;21085;-63
2021/11/18 08:59:00;;;;;;;66.70;29.20;;;;;;;1.47;68.20;100130.56;1680791;85;21422;-62
2021/11/18 09:01:39;;;;;;;58.80;29.72;;;;;;;1.51;68.08;100125.75;1679811;84;21056;-62
2021/11/18 09:04:11;;;;;;;64.22;30.10;;;;;;;1.54;67.78;100114.91;1677580;84;21096;-64
2021/11/18 09:06:39;;;;;;;68.70;29.10;;;;;;;1.58;67.79;100106.05;1639777;86;21088;-64
2021/11/18 09:09:07;;;;;;;63.58;32.42;;;;;;;1.64;67.79;100107.50;1656443;86;21065;-62
2021/11/18 09:11:34;;;;;;;61.85;29.42;;;;;;;1.68;67.48;100112.19;1656697;85;21521;-62
2021/11/18 09:14:02;;;;;;;59.38;30.20;;;;;;;1.73;67.51;100111.44;1657134;86;21048;-63
2021/11/18 09:16:31;;;;;;;64.80;31.02;;;;;;;1.77;67.30;100107.70;1644696;86;21110;-63
2021/11/18 09:19:01;;;;;;;58.73;30.70;;;;;;;1.85;67.51;100103.20;1656010;85;22235;-63
2021/11/18 09:21:27;;;;;;;50.65;27.62;;;;;;;1.96;67.36;100102.84;1653900;85;21015;-63
2021/11/18 09:24:06;;;;;;;51.35;27.20;;;;;;;2.04;67.32;100102.42;1645446;85;21045;-62
2021/11/18 09:26:35;;;;;;;57.85;29.30;;;;;;;2.14;67.20;100107.19;1599127;89;21093;-64
2021/11/18 09:29:04;;;;;;;59.85;30.10;;;;;;;2.26;66.96;100104.89;1593071;88;21080;-63
2021/11/18 09:31:49;;;;;;;55.58;27.75;;;;;;;2.33;66.66;100103.36;1611242;88;21162;-64
2021/11/18 09:34:17;;;;;;;53.55;27.60;;;;;;;2.33;66.52;100100.11;1605137;88;21088;-65
2021/11/18 09:36:44;;;;;;;57.80;26.37;;;;;;;2.30;66.48;100100.06;1603036;88;21078;-64
2021/11/18 09:39:11;;;;;;;50.95;26.27;;;;;;;2.30;66.67;100087.82;1605241;88;21100;-64
2021/11/18 09:41:52;;;;;;;53.35;27.93;;;;;;;2.32;66.77;100082.13;1592984;88;21601;-64
2021/11/18 09:44:38;;;;;;;58.90;28.02;;;;;;;2.35;66.84;100072.13;1602479;88;21827;-64
2021/11/18 09:48:01;;;;;;;57.10;27.02;;;;;;;2.40;66.74;100072.20;1599757;88;21084;-63
2021/11/18 09:50:46;;;;;;;45.33;24.05;;;;;;;2.48;66.82;100062.77;1591363;88;21496;-63
2021/11/18 09:53:23;;;;;;;53.90;25.23;;;;;;;2.65;66.85;100064.06;1603581;88;21127;-64
2021/11/18 09:56:21;;;;;;;51.53;25.72;;;;;;;2.75;66.51;100063.89;1595807;88;21691;-63
2021/11/18 09:59:09;;;;;;;50.80;26.62;;;;;;;2.67;66.31;100055.12;1660150;82;23050;-63
2021/11/18 10:02:19;;;;;;;52.67;26.85;;;;;;;2.50;66.33;100048.91;1665032;86;21054;-64
2021/11/18 10:04:58;;;;;;;56.37;26.85;;;;;;;2.36;66.75;100049.81;1715340;83;20984;-64
2021/11/18 10:07:49;;;;;;;48.80;27.00;;;;;;;2.36;67.38;100047.09;1715499;83;21034;-63
2021/11/18 10:10:29;;;;;;;;;;;;;;;2.47;67.41;100045.34;1717924;83;20998;-65
2021/11/18 10:13:18;;;;;;;54.03;26.30;;;;;;;2.62;67.49;100036.53;1688667;83;21057;-64
2021/11/18 10:15:59;;;;;;;58.30;26.12;;;;;;;2.74;67.24;100030.42;1714875;83;20999;-61
2021/11/18 10:18:31;;;;;;;50.33;25.77;;;;;;;2.84;67.09;100024.27;1715148;83;20994;-62
2021/11/18 10:21:02;;;;;;;49.77;25.08;;;;;;;2.98;67.15;100016.52;1714249;83;21038;-62
2021/11/18 10:23:30;;;;;;;46.63;23.62;;;;;;;3.15;67.22;100022.39;1715089;83;21061;-63
2021/11/18 10:26:05;;;;;;;49.25;27.87;;;;;;;3.29;66.49;100017.35;1715070;83;21225;-63
2021/11/18 10:28:37;;;;;;;60.15;28.67;;;;;;;3.30;66.10;100008.09;1714402;83;20975;-62
2021/11/18 10:31:18;;;;;;;45.30;25.65;;;;;;;3.25;65.84;100008.04;1715042;83;21018;-61
2021/11/18 10:34:06;;;;;;;45.23;25.15;;;;;;;3.19;65.84;100005.80;1688090;83;21085;-63
2021/11/18 10:36:54;;;;;;;43.90;25.55;;;;;;;3.16;65.91;100005.80;1714959;83;21086;-62
2021/11/18 10:39:54;;;;;;;54.23;26.73;;;;;;;3.11;65.87;99997.57;1715156;83;21130;-63
2021/11/18 10:42:29;;;;;;;52.38;25.90;;;;;;;3.07;65.98;100003.24;1714502;83;21048;-63
2021/11/18 10:45:04;;;;;;;56.77;27.32;;;;;;;3.00;66.04;99999.37;1714253;83;21010;-64
2021/11/18 10:47:57;;;;;;;56.77;26.35;;;;;;;2.94;66.38;99995.48;1714690;83;21096;-63
2021/11/18 10:50:47;;;;;;;47.62;25.50;;;;;;;2.91;66.44;99993.59;1714752;83;21049;-63
2021/11/18 10:53:30;;;;;;;55.45;25.72;;;;;;;2.87;66.72;99994.34;1714723;83;21157;-63
2021/11/18 10:56:09;;;;;;;48.33;24.92;;;;;;;2.87;66.85;99990.25;1712368;83;21011;-62
2021/11/18 10:58:48;;;;;;;54.18;29.57;;;;;;;2.84;66.87;99986.69;1699950;83;21035;-62
2021/11/18 11:01:34;;;;;;;73.40;35.10;;;;;;;2.81;66.95;99992.12;1692317;84;21256;-61
2021/11/18 11:04:08;;;;;;;59.80;28.00;;;;;;;2.79;67.20;99987.47;1638762;87;21701;-62
2021/11/18 11:06:46;;;;;;;58.63;28.57;;;;;;;2.80;67.32;99989.09;1631926;86;21546;-62
2021/11/18 11:09:17;;;;;;;58.05;29.80;;;;;;;2.80;67.48;99984.48;1629131;86;21056;-62
2021/11/18 11:12:12;;;;;;;65.00;34.58;;;;;;;2.85;67.58;99971.45;1654352;86;21554;-62
2021/11/18 11:15:28;;;;;;;60.25;32.08;;;;;;;2.86;67.46;99971.75;1619803;87;21112;-62
2021/11/18 11:18:29;;;;;;;46.40;24.00;;;;;;;2.88;67.55;99972.30;1649812;86;20989;-62
2021/11/18 11:21:33;;;;;;;51.73;26.30;;;;;;;2.90;67.68;99966.62;1650713;86;21173;-63
2021/11/18 11:24:22;;;;;;;55.38;27.87;;;;;;;2.96;67.56;99964.22;1641922;87;20999;-61
2021/11/18 11:27:26;;;;;;;62.65;30.10;;;;;;;3.00;67.66;99960.45;1649695;85;21074;-61
2021/11/18 11:30:12;;;;;;;43.80;21.90;;;;;;;3.04;67.54;99963.75;1640939;87;21134;-62